Time;durP1;ratioP1;P1;durP2;ratioP2;P2;SDS_P1;SDS_P2;PMS_P1;PMS_P2;Temp;Humidity;BMP_temperature;BMP_pressure;BME280_temperature;BME280_humidity;BME280_pressure;Samples;Min_cycle;Max_cycle;Signal;HPM_P1;HPM_P2
2023/08/17 00:01:49;;;;;;;0.52;0.52;;;;;;;22.56;60.39;99945.44;4269428;33;20129;-93
2023/08/17 00:04:15;;;;;;;0.40;0.40;;;;;;;22.34;60.39;99939.16;4267467;33;20105;-94
2023/08/17 00:06:40;;;;;;;3.90;0.95;;;;;;;22.27;60.38;99945.91;4266980;33;20109;-94
2023/08/17 00:09:06;;;;;;;0.45;0.45;;;;;;;22.28;60.38;99934.31;4267056;33;20102;-93
2023/08/17 00:11:32;;;;;;;3.53;1.12;;;;;;;22.29;60.38;99932.50;4266815;33;20132;-94
2023/08/17 00:13:57;;;;;;;1.73;0.40;;;;;;;22.34;60.39;99933.00;4266786;33;20108;-93
2023/08/17 00:16:23;;;;;;;3.50;0.90;;;;;;;22.30;60.38;99931.56;4266737;33;20088;-94
2023/08/17 00:18:48;;;;;;;0.90;0.90;;;;;;;22.43;60.39;99928.78;4266803;33;20165;-94
2023/08/17 00:21:14;;;;;;;0.30;0.30;;;;;;;22.26;60.38;99928.28;4268241;33;20099;-93
2023/08/17 00:23:39;;;;;;;1.33;0.50;;;;;;;22.30;60.38;99927.09;4266602;33;20165;-93
2023/08/17 00:26:05;;;;;;;2.17;0.95;;;;;;;22.29;60.38;99925.41;4266570;33;20096;-93
2023/08/17 00:28:30;;;;;;;7.12;1.55;;;;;;;22.26;60.37;99922.16;4266627;33;20093;-93
2023/08/17 00:30:56;;;;;;;0.00;0.00;;;;;;;22.21;60.38;99918.97;4267005;33;20136;-93
2023/08/17 00:33:22;;;;;;;0.00;0.00;;;;;;;22.32;60.38;99921.66;4266834;33;20396;-93
2023/08/17 00:35:47;;;;;;;6.85;1.15;;;;;;;22.51;60.39;99918.41;4290495;33;20069;-93
2023/08/17 00:38:13;;;;;;;0.30;0.30;;;;;;;22.42;60.39;99914.66;4266683;33;20160;-93
2023/08/17 00:40:38;;;;;;;0.98;0.85;;;;;;;22.38;60.38;99910.56;4266995;33;20159;-93
2023/08/17 00:43:04;;;;;;;2.45;0.93;;;;;;;22.35;60.39;99909.00;4268970;33;20109;-94
2023/08/17 00:45:30;;;;;;;1.15;1.10;;;;;;;22.28;60.38;99905.16;4266730;33;20089;-94
2023/08/17 00:47:56;;;;;;;0.15;0.15;;;;;;;22.37;60.38;99903.56;4266518;33;20335;-94
2023/08/17 00:50:22;;;;;;;0.13;0.13;;;;;;;22.29;60.38;99909.50;4266566;33;20494;-93
2023/08/17 00:52:47;;;;;;;0.40;0.40;;;;;;;22.33;60.39;99913.59;4266538;33;20783;-94
2023/08/17 00:55:13;;;;;;;0.15;0.15;;;;;;;22.35;60.38;99916.97;4266664;33;20158;-93
2023/08/17 00:57:41;;;;;;;0.20;0.20;;;;;;;22.26;60.37;99922.16;4266368;33;20119;-93
2023/08/17 01:00:08;;;;;;;0.62;0.55;;;;;;;22.25;60.37;99920.47;4302553;33;20116;-93
2023/08/17 01:02:34;;;;;;;0.50;0.50;;;;;;;22.30;60.37;99924.44;4267452;33;20120;-93
2023/08/17 01:05:00;;;;;;;4.12;1.45;;;;;;;22.23;60.37;99925.84;4266316;33;20105;-94
2023/08/17 01:07:25;;;;;;;0.57;0.40;;;;;;;22.10;60.38;99927.78;4266532;33;20145;-94
2023/08/17 01:09:51;;;;;;;0.82;0.50;;;;;;;22.12;60.37;99939.09;4266479;33;20143;-93
2023/08/17 01:12:24;;;;;;;0.20;0.20;;;;;;;22.08;60.37;99937.66;4266491;33;20265;-93
2023/08/17 01:15:14;;;;;;;0.40;0.35;;;;;;;22.09;60.37;99936.69;4290242;33;20070;-94
2023/08/17 01:17:42;;;;;;;0.70;0.55;;;;;;;22.14;60.37;99937.19;4274936;33;20152;-94
2023/08/17 01:20:09;;;;;;;0.50;0.50;;;;;;;22.23;60.37;99944.41;4289968;33;20164;-93
2023/08/17 01:22:35;;;;;;;30.67;0.90;;;;;;;22.13;60.37;99943.44;4277910;33;20069;-93
2023/08/17 01:25:01;;;;;;;2.42;1.02;;;;;;;22.07;60.37;99946.56;4280559;33;20077;-94
2023/08/17 01:27:33;;;;;;;0.85;0.43;;;;;;;22.08;60.36;99948.25;4280404;33;20137;-93
2023/08/17 01:29:59;;;;;;;0.40;0.30;;;;;;;22.06;60.36;99939.59;4278099;33;20136;-93
2023/08/17 01:32:30;;;;;;;0.00;0.00;;;;;;;21.95;60.36;99940.34;4266693;33;20444;-93
2023/08/17 01:35:04;;;;;;;0.30;0.30;;;;;;;21.86;60.35;99938.41;4266654;33;20096;-94
2023/08/17 01:37:30;;;;;;;0.20;0.20;;;;;;;22.14;60.37;99942.47;4278494;33;20100;-93
2023/08/17 01:39:55;;;;;;;0.77;0.30;;;;;;;22.08;60.37;99935.00;4266602;33;20125;-94
2023/08/17 01:42:21;;;;;;;4.25;1.55;;;;;;;21.96;60.36;99936.75;4266397;33;20125;-93
2023/08/17 01:44:48;;;;;;;0.32;0.32;;;;;;;21.99;60.36;99933.00;4266663;33;20123;-93
2023/08/17 01:47:13;;;;;;;1.08;0.47;;;;;;;22.09;60.36;99930.56;4266927;33;20181;-94
2023/08/17 01:49:39;;;;;;;0.60;0.50;;;;;;;22.31;60.38;99931.44;4267352;33;20156;-93
2023/08/17 01:52:05;;;;;;;0.45;0.40;;;;;;;22.19;60.36;99927.06;4268177;33;20135;-93
2023/08/17 01:54:30;;;;;;;0.85;0.43;;;;;;;22.04;60.36;99923.81;4268847;33;20100;-94
2023/08/17 01:56:56;;;;;;;0.75;0.73;;;;;;;22.04;60.37;99920.31;4269999;33;20119;-94
2023/08/17 01:59:21;;;;;;;2.22;0.98;;;;;;;22.03;60.37;99914.12;4265889;33;20160;-94
2023/08/17 02:01:47;;;;;;;0.95;0.85;;;;;;;22.03;60.37;99914.12;4266155;33;20253;-93
2023/08/17 02:04:12;;;;;;;0.37;0.37;;;;;;;21.97;60.37;99914.56;4265445;33;22323;-94
2023/08/17 02:06:38;;;;;;;0.98;0.98;;;;;;;21.93;60.36;99929.03;4266031;33;20093;-94
2023/08/17 02:09:03;;;;;;;0.25;0.25;;;;;;;21.93;60.36;99928.19;4265850;33;20149;-94
2023/08/17 02:11:28;;;;;;;0.55;0.37;;;;;;;21.99;60.36;99920.59;4277766;33;20112;-94
2023/08/17 02:13:54;;;;;;;1.10;0.28;;;;;;;22.05;60.36;99929.94;4265708;33;20089;-94
2023/08/17 02:16:19;;;;;;;1.45;0.90;;;;;;;22.08;60.37;99937.66;4266716;33;20160;-93
2023/08/17 02:18:45;;;;;;;0.13;0.13;;;;;;;22.16;60.37;99931.75;4265561;33;20501;-93
2023/08/17 02:21:11;;;;;;;0.50;0.50;;;;;;;22.16;60.37;99935.25;4265828;33;20127;-94
2023/08/17 02:23:37;;;;;;;0.57;0.57;;;;;;;22.22;60.37;99924.16;4266037;33;20081;-94
2023/08/17 02:26:02;;;;;;;1.77;1.10;;;;;;;22.18;60.38;99928.03;4277741;33;20108;-93
2023/08/17 02:28:29;;;;;;;1.17;0.60;;;;;;;22.23;60.38;99935.62;4265675;33;20121;-94
2023/08/17 02:30:58;;;;;;;0.68;0.68;;;;;;;22.32;60.37;99927.81;4301651;33;20104;-93
2023/08/17 02:33:24;;;;;;;0.60;0.60;;;;;;;22.36;60.38;99937.22;4265517;33;20118;-94
2023/08/17 02:35:51;;;;;;;1.65;1.30;;;;;;;22.46;60.39;99936.47;4266312;33;20772;-94
2023/08/17 02:38:16;;;;;;;3.92;0.60;;;;;;;22.30;60.38;99936.84;4265874;33;20147;-94
2023/08/17 02:40:42;;;;;;;0.28;0.28;;;;;;;22.48;60.38;99926.63;4265740;33;20455;-93
2023/08/17 02:43:07;;;;;;;1.52;0.57;;;;;;;22.51;60.39;99923.72;4266149;33;20127;-94
2023/08/17 02:45:53;;;;;;;0.47;0.47;;;;;;;22.71;60.40;99925.63;4268021;33;20399;-94
2023/08/17 02:48:18;;;;;;;0.20;0.20;;;;;;;22.90;60.41;99925.87;4277739;33;20178;-94
2023/08/17 02:50:44;;;;;;;0.40;0.40;;;;;;;22.86;60.41;99920.94;4267458;33;20113;-93
2023/08/17 02:53:09;;;;;;;0.70;0.70;;;;;;;22.73;60.40;99917.56;4267405;33;20088;-95
2023/08/17 02:55:35;;;;;;;0.77;0.77;;;;;;;22.61;60.39;99919.38;4267968;33;20201;-94
2023/08/17 02:58:00;;;;;;;0.52;0.47;;;;;;;22.52;60.39;99905.03;4269775;33;20117;-94
2023/08/17 03:00:25;;;;;;;0.43;0.37;;;;;;;22.54;60.39;99911.06;4267606;33;20117;-93
2023/08/17 03:02:52;;;;;;;5.45;3.25;;;;;;;22.41;60.38;99906.84;4267606;33;20100;-94
2023/08/17 03:05:18;;;;;;;7.37;1.37;;;;;;;22.41;60.38;99904.19;4267968;33;20097;-94
2023/08/17 03:07:43;;;;;;;0.68;0.68;;;;;;;22.36;60.38;99909.84;4267513;33;20400;-94
2023/08/17 03:10:09;;;;;;;1.50;0.77;;;;;;;22.47;60.39;99919.59;4279377;33;20447;-94
2023/08/17 03:12:37;;;;;;;0.32;0.32;;;;;;;22.46;60.39;99912.63;4267640;33;20156;-94
2023/08/17 03:15:07;;;;;;;0.00;0.00;;;;;;;22.47;60.38;99912.50;4267864;33;20100;-93
2023/08/17 03:17:32;;;;;;;0.45;0.40;;;;;;;22.52;60.39;99917.47;4270190;33;20070;-94
2023/08/17 03:19:59;;;;;;;0.60;0.60;;;;;;;22.43;60.39;99915.50;4267661;33;20256;-93
2023/08/17 03:22:25;;;;;;;1.20;0.95;;;;;;;22.46;60.38;99917.91;4267626;33;20117;-94
2023/08/17 03:24:51;;;;;;;0.43;0.43;;;;;;;22.38;60.38;99915.88;4267563;33;20092;-93
2023/08/17 03:27:16;;;;;;;2.08;1.35;;;;;;;22.39;60.38;99917.56;4267643;33;20108;-94
2023/08/17 03:29:42;;;;;;;0.80;0.62;;;;;;;22.48;60.39;99922.16;4267672;33;20164;-94
2023/08/17 03:32:07;;;;;;;0.45;0.30;;;;;;;22.47;60.39;99916.94;4267335;33;20120;-94
2023/08/17 03:34:32;;;;;;;0.50;0.50;;;;;;;22.47;60.39;99912.50;4267262;33;20088;-93
2023/08/17 03:36:58;;;;;;;0.45;0.45;;;;;;;22.50;60.38;99908.78;4271636;33;20109;-95
2023/08/17 03:39:23;;;;;;;1.23;1.05;;;;;;;22.51;60.39;99903.34;4281163;33;20073;-94
2023/08/17 03:41:49;;;;;;;0.20;0.20;;;;;;;22.42;60.38;99908.50;4275046;33;20096;-94
2023/08/17 03:44:15;;;;;;;0.30;0.30;;;;;;;22.50;60.38;99914.09;4268035;33;20128;-94
2023/08/17 03:46:41;;;;;;;1.37;0.43;;;;;;;22.52;60.39;99912.16;4267981;33;20109;-94
2023/08/17 03:49:06;;;;;;;0.30;0.30;;;;;;;22.47;60.38;99903.69;4267878;33;20187;-94
2023/08/17 03:51:32;;;;;;;0.65;0.65;;;;;;;22.43;60.38;99900.44;4267135;33;20116;-94
2023/08/17 03:53:57;;;;;;;0.45;0.45;;;;;;;22.48;60.38;99906.25;4267181;33;20156;-94
2023/08/17 03:56:23;;;;;;;0.20;0.20;;;;;;;22.60;60.40;99904.41;4267408;33;20120;-95
2023/08/17 03:58:49;;;;;;;0.90;0.85;;;;;;;22.56;60.39;99906.47;4267341;33;20131;-95
2023/08/17 04:01:14;;;;;;;0.50;0.50;;;;;;;22.57;60.38;99904.66;4267712;33;20105;-95
2023/08/17 04:03:40;;;;;;;1.95;0.98;;;;;;;22.55;60.39;99901.28;4267760;33;20107;-94
2023/08/17 04:06:06;;;;;;;0.10;0.10;;;;;;;22.66;60.40;99906.56;4269079;33;20117;-94
2023/08/17 04:08:32;;;;;;;0.88;0.55;;;;;;;22.62;60.39;99905.97;4270467;33;20485;-94
2023/08/17 04:10:57;;;;;;;5.12;2.15;;;;;;;22.47;60.38;99912.50;4285236;33;20101;-94
2023/08/17 04:13:23;;;;;;;1.85;1.67;;;;;;;22.57;60.38;99913.47;4267625;33;20152;-93
2023/08/17 04:15:48;;;;;;;0.50;0.37;;;;;;;22.54;60.39;99913.72;4266899;33;20906;-94
2023/08/17 04:18:13;;;;;;;4.28;1.83;;;;;;;22.50;60.39;99914.94;4267189;33;20193;-94
2023/08/17 04:20:39;;;;;;;0.60;0.50;;;;;;;22.66;60.40;99918.03;4267345;33;20116;-95
2023/08/17 04:23:05;;;;;;;0.52;0.50;;;;;;;22.62;60.39;99924.56;4267190;33;20128;-95
2023/08/17 04:25:30;;;;;;;1.42;1.30;;;;;;;22.54;60.39;99920.84;4279665;33;20124;-94
2023/08/17 04:27:56;;;;;;;0.25;0.25;;;;;;;22.65;60.39;99920.81;4267442;33;20518;-95
2023/08/17 04:30:21;;;;;;;0.68;0.68;;;;;;;22.67;60.40;99919.72;4267362;33;20123;-95
2023/08/17 04:32:52;;;;;;;0.30;0.30;;;;;;;22.75;60.40;99916.47;4269590;33;20142;-95
2023/08/17 04:35:17;;;;;;;0.85;0.47;;;;;;;22.84;60.40;99920.22;4267903;33;20132;-95
2023/08/17 04:37:43;;;;;;;0.43;0.40;;;;;;;22.89;60.41;99921.53;4267219;33;20132;-94
2023/08/17 04:40:09;;;;;;;0.62;0.62;;;;;;;22.91;60.41;99916.94;4279020;33;20113;-94
2023/08/17 04:42:35;;;;;;;0.68;0.68;;;;;;;22.82;60.40;99916.84;4267416;33;20745;-95
2023/08/17 04:45:01;;;;;;;0.25;0.25;;;;;;;22.93;60.41;99914.16;4267216;33;20181;-95
2023/08/17 04:47:26;;;;;;;0.80;0.80;;;;;;;22.89;60.41;99913.56;4266862;33;20132;-95
2023/08/17 04:49:52;;;;;;;0.30;0.30;;;;;;;22.87;60.40;99920.81;4266959;33;20152;-95
2023/08/17 04:52:17;;;;;;;0.30;0.30;;;;;;;23.06;60.42;99914.03;4269547;33;20201;-95
2023/08/17 04:54:46;;;;;;;0.15;0.15;;;;;;;23.02;60.41;99923.22;4267263;33;20096;-95
2023/08/17 04:57:11;;;;;;;0.40;0.40;;;;;;;23.02;60.41;99924.06;4267577;33;20169;-95
2023/08/17 04:59:37;;;;;;;0.50;0.45;;;;;;;23.22;60.43;99925.94;4267132;33;20165;-95
2023/08/17 05:02:02;;;;;;;0.52;0.43;;;;;;;22.98;60.41;99924.44;4267059;33;20122;-95
2023/08/17 05:04:29;;;;;;;0.62;0.62;;;;;;;23.12;60.42;99926.81;4267083;33;20113;-95
2023/08/17 05:06:55;;;;;;;0.25;0.25;;;;;;;23.15;60.42;99926.56;4266114;33;20109;-94
2023/08/17 05:09:21;;;;;;;0.62;0.60;;;;;;;23.11;60.42;99931.28;4267021;33;20495;-95
2023/08/17 05:11:46;;;;;;;0.10;0.10;;;;;;;23.28;60.43;99922.78;4267654;33;20112;-95
2023/08/17 05:14:12;;;;;;;0.88;0.62;;;;;;;23.72;60.45;99925.41;4293150;33;20451;-96
2023/08/17 05:16:37;;;;;;;0.68;0.60;;;;;;;23.50;60.43;99924.50;4267310;33;20173;-95
2023/08/17 05:19:03;;;;;;;2.15;0.95;;;;;;;23.71;60.44;99923.72;4267239;33;20108;-95
2023/08/17 05:21:29;;;;;;;0.17;0.17;;;;;;;23.57;60.44;99917.75;4267421;33;20097;-95
2023/08/17 05:23:55;;;;;;;1.00;0.93;;;;;;;23.54;60.44;99915.31;4267238;33;20117;-95
2023/08/17 05:26:20;;;;;;;0.82;0.82;;;;;;;23.61;60.44;99918.31;4267288;33;20148;-96
2023/08/17 05:28:46;;;;;;;0.90;0.85;;;;;;;23.66;60.44;99915.28;4267230;33;20114;-96
2023/08/17 05:31:11;;;;;;;1.25;0.73;;;;;;;23.56;60.44;99912.56;4267044;33;20328;-95
2023/08/17 05:33:37;;;;;;;0.57;0.57;;;;;;;23.67;60.44;99917.00;4267208;33;20170;-96
2023/08/17 05:36:02;;;;;;;3.97;2.17;;;;;;;23.82;60.45;99913.03;4267244;33;20123;-96
2023/08/17 05:38:28;;;;;;;0.43;0.43;;;;;;;24.12;60.47;99907.75;4269330;33;20136;-96
2023/08/17 05:40:57;;;;;;;0.52;0.52;;;;;;;24.05;60.46;99909.25;4279238;33;20095;-96
2023/08/17 05:43:23;;;;;;;0.45;0.45;;;;;;;24.02;60.47;99914.84;4267777;33;20180;-96
2023/08/17 05:45:48;;;;;;;0.55;0.45;;;;;;;23.92;60.46;99915.78;4279383;33;20113;-96
2023/08/17 05:48:14;;;;;;;0.55;0.55;;;;;;;24.18;60.47;99912.56;4266640;33;20108;-96
2023/08/17 05:50:42;;;;;;;1.27;0.73;;;;;;;24.38;60.48;99913.53;4266811;33;20111;-96
2023/08/17 05:53:08;;;;;;;0.37;0.37;;;;;;;24.41;60.48;99921.25;4291005;33;20176;-96
2023/08/17 05:55:33;;;;;;;0.30;0.30;;;;;;;24.44;60.48;99904.19;4266965;33;20116;-96
2023/08/17 05:57:59;;;;;;;0.57;0.57;;;;;;;24.55;60.49;99916.53;4278779;33;20390;-96
2023/08/17 06:00:24;;;;;;;1.30;1.20;;;;;;;24.85;60.50;99910.34;4266538;33;20109;-96
2023/08/17 06:02:51;;;;;;;1.00;0.95;;;;;;;24.78;60.51;99916.19;4266986;33;20132;-96
2023/08/17 06:05:17;;;;;;;0.30;0.30;;;;;;;24.91;60.51;99910.63;4268664;33;20100;-96
2023/08/17 06:07:42;;;;;;;0.82;0.37;;;;;;;24.98;60.51;99909.09;4270355;33;20081;-96
2023/08/17 06:10:09;;;;;;;1.40;1.00;;;;;;;25.14;60.51;99913.94;4266732;33;20140;-96
2023/08/17 06:12:35;;;;;;;0.80;0.40;;;;;;;25.37;60.53;99909.19;4267057;33;20139;-96
2023/08/17 06:15:01;;;;;;;1.55;0.77;;;;;;;25.57;60.54;99905.56;4266486;33;20109;-96
2023/08/17 06:17:27;;;;;;;0.50;0.50;;;;;;;25.46;60.53;99910.16;4267299;33;20089;-96
2023/08/17 06:19:52;;;;;;;0.30;0.17;;;;;;;25.62;60.54;99907.78;4268605;33;20119;-96
2023/08/17 06:22:17;;;;;;;0.55;0.55;;;;;;;25.60;60.54;99909.75;4268245;33;20201;-96
2023/08/17 06:24:43;;;;;;;0.68;0.50;;;;;;;25.83;60.55;99897.84;4268461;33;20180;-96
2023/08/17 06:27:09;;;;;;;2.90;1.10;;;;;;;25.89;60.56;99891.09;4280065;33;20096;-96
2023/08/17 06:29:34;;;;;;;0.88;0.55;;;;;;;25.88;60.56;99898.25;4292965;33;20135;-96
2023/08/17 06:32:00;;;;;;;2.08;1.40;;;;;;;26.14;60.57;99894.94;4268208;33;20120;-96
2023/08/17 06:34:25;;;;;;;1.33;1.20;;;;;;;26.29;60.58;99893.50;4268513;33;20104;-96
2023/08/17 06:37:02;;;;;;;6.22;1.67;;;;;;;26.40;60.58;99892.50;4268650;33;20124;-96
2023/08/17 06:39:28;;;;;;;0.40;0.40;;;;;;;26.36;60.59;99889.28;4268679;33;20093;-96
2023/08/17 06:41:54;;;;;;;0.37;0.35;;;;;;;26.49;60.60;99881.78;4292425;33;20128;-96
2023/08/17 06:44:19;;;;;;;0.17;0.17;;;;;;;26.46;60.59;99876.72;4292696;33;20120;-96
2023/08/17 06:46:45;;;;;;;0.82;0.82;;;;;;;26.42;60.59;99875.34;4293338;33;20092;-96
2023/08/17 06:49:12;;;;;;;1.85;0.90;;;;;;;26.30;60.58;99880.03;4296077;33;20085;-96
2023/08/17 06:51:38;;;;;;;11.30;2.17;;;;;;;26.40;60.58;99882.66;4294577;33;20143;-96
2023/08/17 06:54:04;;;;;;;1.70;1.12;;;;;;;26.58;60.60;99880.06;4294145;33;20069;-96
2023/08/17 06:56:30;;;;;;;0.60;0.60;;;;;;;26.57;60.59;99875.72;4294214;33;20097;-96
2023/08/17 06:59:05;;;;;;;0.88;0.88;;;;;;;26.49;60.58;99879.09;4298203;33;20093;-96
2023/08/17 07:01:40;;;;;;;0.43;0.43;;;;;;;26.55;60.59;99875.03;4301043;33;20057;-96
2023/08/17 07:04:06;;;;;;;1.10;0.50;;;;;;;26.74;60.61;99876.75;4311881;33;20157;-96
2023/08/17 07:06:49;;;;;;;0.55;0.55;;;;;;;26.91;60.61;99879.44;4299704;33;20077;-96
2023/08/17 10:33:37;;;;;;;0.73;0.73;;;;;;;32.16;60.89;99827.19;4961429;27;20099;-96
2023/08/17 10:36:03;;;;;;;0.40;0.40;;;;;;;32.24;60.89;99828.97;4299181;33;20072;-96
2023/08/17 10:38:30;;;;;;;0.30;0.28;;;;;;;32.13;60.89;99840.19;4310870;33;20121;-96
2023/08/17 10:41:11;;;;;;;0.47;0.47;;;;;;;31.96;60.88;99829.62;4298460;33;20139;-96
2023/08/17 10:43:57;;;;;;;1.12;1.05;;;;;;;32.10;60.88;99822.56;4300377;33;20151;-96
2023/08/17 10:46:32;;;;;;;0.30;0.30;;;;;;;32.21;60.90;99827.50;4318402;33;20099;-96
2023/08/17 10:49:53;;;;;;;0.10;0.10;;;;;;;32.61;60.92;99822.59;4308540;33;20132;-96
2023/08/17 10:52:40;;;;;;;0.93;0.62;;;;;;;32.92;60.92;99825.91;4278551;33;20065;-96
2023/08/17 10:56:08;;;;;;;8.40;0.70;;;;;;;33.19;60.94;99818.91;4277079;33;20100;-97
2023/08/17 10:59:33;;;;;;;0.70;0.62;;;;;;;33.54;60.96;99819.03;4255432;33;20094;-95
2023/08/17 11:07:44;;;;;;;0.40;0.40;;;;;;;33.43;60.96;99816.88;4227600;33;20156;-96
2023/08/17 11:10:54;;;;;;;0.30;0.30;;;;;;;33.55;60.95;99818.00;4278371;33;20147;-92
2023/08/17 11:13:51;;;;;;;0.77;0.77;;;;;;;33.75;60.97;99818.97;4249978;33;20096;-92
2023/08/17 11:35:03;;;;;;;0.25;0.25;;;;;;;32.71;60.93;99822.31;4978358;28;20130;-90
2023/08/17 11:37:29;;;;;;;1.37;0.75;;;;;;;32.60;60.92;99824.47;4293622;33;20151;-90
2023/08/17 11:39:54;;;;;;;0.73;0.73;;;;;;;32.67;60.91;99828.09;4281683;33;23712;-90
2023/08/17 11:42:20;;;;;;;0.10;0.10;;;;;;;32.70;60.92;99828.75;4293929;33;20135;-90
2023/08/17 11:44:45;;;;;;;0.68;0.68;;;;;;;32.57;60.91;99824.03;4293891;33;20266;-91
2023/08/17 11:47:10;;;;;;;1.12;1.02;;;;;;;32.75;60.92;99818.22;4294025;33;20108;-90
2023/08/17 11:49:36;;;;;;;0.57;0.47;;;;;;;32.90;60.93;99817.19;4293528;33;22212;-91
2023/08/17 11:52:01;;;;;;;0.57;0.55;;;;;;;32.90;60.93;99817.19;4293916;33;20108;-91
2023/08/17 11:54:27;;;;;;;0.30;0.30;;;;;;;32.94;60.94;99826.56;4306025;33;20148;-92
2023/08/17 11:56:52;;;;;;;0.35;0.22;;;;;;;33.02;60.94;99817.50;4305736;33;21193;-91
2023/08/17 11:59:18;;;;;;;0.40;0.40;;;;;;;33.10;60.94;99817.34;4293797;33;20160;-91
2023/08/17 12:01:44;;;;;;;0.68;0.68;;;;;;;33.22;60.94;99810.44;4293880;33;20116;-92
2023/08/17 12:04:09;;;;;;;0.13;0.13;;;;;;;33.22;60.95;99813.13;4293819;33;20112;-90
2023/08/17 12:06:35;;;;;;;1.27;1.05;;;;;;;33.41;60.96;99814.38;4294027;33;20171;-90
2023/08/17 12:09:04;;;;;;;0.45;0.45;;;;;;;33.56;60.96;99804.28;4294060;33;20096;-91
2023/08/17 12:11:30;;;;;;;0.87;0.80;;;;;;;33.55;60.96;99799.94;4293734;33;20108;-91
2023/08/17 12:13:55;;;;;;;0.37;0.37;;;;;;;33.53;60.97;99799.28;4293002;33;23303;-91
2023/08/17 12:16:21;;;;;;;0.60;0.60;;;;;;;33.58;60.97;99796.84;4293589;33;20151;-90
2023/08/17 12:18:53;;;;;;;0.80;0.80;;;;;;;33.85;60.98;99791.66;4293812;33;20755;-91
2023/08/17 12:21:22;;;;;;;0.35;0.32;;;;;;;33.81;60.98;99784.94;4293701;33;20113;-91
2023/08/17 12:23:47;;;;;;;3.73;0.90;;;;;;;33.68;60.97;99783.00;4293872;33;20179;-91
2023/08/17 12:26:21;;;;;;;0.90;0.68;;;;;;;33.73;60.98;99779.72;4281897;33;20206;-91
2023/08/17 12:28:46;;;;;;;0.57;0.57;;;;;;;33.86;60.98;99779.84;4282031;33;20069;-92
2023/08/17 12:31:12;;;;;;;0.57;0.40;;;;;;;33.85;60.98;99781.69;4281301;33;20209;-90
2023/08/17 12:33:37;;;;;;;0.50;0.50;;;;;;;33.78;60.97;99775.38;4281338;33;29904;-91
2023/08/17 12:36:04;;;;;;;0.60;0.60;;;;;;;33.72;60.97;99772.63;4279364;33;20136;-91
2023/08/17 12:38:29;;;;;;;1.75;1.65;;;;;;;33.85;60.98;99775.47;4279451;33;20125;-90
2023/08/17 12:40:54;;;;;;;0.52;0.52;;;;;;;34.01;60.98;99758.91;4279079;33;20514;-91
2023/08/17 12:43:20;;;;;;;0.68;0.68;;;;;;;34.14;60.99;99766.25;4267502;33;20128;-91
2023/08/17 12:45:45;;;;;;;0.40;0.40;;;;;;;34.00;60.99;99764.50;4267372;33;20093;-92
2023/08/17 12:48:11;;;;;;;0.50;0.50;;;;;;;33.99;60.99;99762.84;4279240;33;20101;-91
2023/08/17 12:50:36;;;;;;;0.52;0.52;;;;;;;33.96;60.98;99760.56;4279299;33;20171;-92
2023/08/17 12:53:02;;;;;;;3.50;0.55;;;;;;;33.80;60.99;99740.91;4279144;33;20125;-91
2023/08/17 12:55:27;;;;;;;1.17;0.43;;;;;;;33.84;60.98;99744.94;4279301;33;20150;-91
2023/08/17 12:57:52;;;;;;;1.27;0.45;;;;;;;33.94;60.98;99749.13;4279228;33;20108;-91
2023/08/17 13:00:18;;;;;;;1.55;0.30;;;;;;;34.08;60.99;99742.75;4267331;33;20124;-91
2023/08/17 13:02:46;;;;;;;0.93;0.80;;;;;;;34.18;60.99;99733.22;4279154;33;20117;-92
2023/08/17 13:05:11;;;;;;;1.40;1.30;;;;;;;34.29;60.99;99730.97;4267954;33;20088;-91
2023/08/17 13:07:37;;;;;;;0.10;0.10;;;;;;;34.24;61.00;99726.19;4279037;33;20128;-92
2023/08/17 13:10:02;;;;;;;0.30;0.30;;;;;;;34.00;60.99;99732.94;4266822;33;22011;-92
2023/08/17 13:12:28;;;;;;;0.80;0.75;;;;;;;33.75;60.98;99737.13;4279285;33;20109;-92
2023/08/17 13:14:53;;;;;;;1.23;0.57;;;;;;;33.47;60.96;99726.37;4279241;33;20118;-92
2023/08/17 13:17:19;;;;;;;0.32;0.32;;;;;;;33.07;60.94;99736.00;4266607;33;27004;-91
2023/08/17 13:19:44;;;;;;;1.02;0.45;;;;;;;32.92;60.95;99733.41;4291083;33;20173;-91
2023/08/17 13:22:10;;;;;;;1.45;0.70;;;;;;;32.79;60.94;99738.62;4266950;33;20145;-90
2023/08/17 13:24:35;;;;;;;0.28;0.20;;;;;;;32.76;60.92;99733.63;4279086;33;20151;-91
2023/08/17 13:27:01;;;;;;;1.40;0.55;;;;;;;32.84;60.94;99731.66;4278251;33;20131;-92
2023/08/17 13:29:26;;;;;;;0.32;0.32;;;;;;;32.82;60.93;99731.00;4278792;33;20520;-92
2023/08/17 13:31:52;;;;;;;0.43;0.32;;;;;;;32.86;60.93;99740.38;4278489;33;20101;-91
2023/08/17 13:34:17;;;;;;;1.10;1.08;;;;;;;32.72;60.93;99735.88;4278934;33;20432;-91
2023/08/17 13:36:42;;;;;;;0.32;0.32;;;;;;;32.83;60.93;99734.53;4278882;33;20156;-92
2023/08/17 13:39:08;;;;;;;0.52;0.52;;;;;;;32.75;60.92;99734.66;4278026;33;31883;-91
2023/08/17 13:41:33;;;;;;;0.08;0.08;;;;;;;32.63;60.92;99737.00;4266422;33;20163;-91
2023/08/17 13:44:00;;;;;;;0.77;0.77;;;;;;;32.64;60.92;99738.69;4266160;33;28123;-91
2023/08/17 13:46:26;;;;;;;0.68;0.50;;;;;;;32.91;60.93;99729.03;4279096;33;20093;-92
2023/08/17 13:48:51;;;;;;;0.95;0.93;;;;;;;33.17;60.96;99729.25;4278515;33;20214;-91
2023/08/17 13:51:16;;;;;;;0.40;0.40;;;;;;;33.16;60.95;99727.59;4278766;33;20169;-91
2023/08/17 13:53:42;;;;;;;1.02;0.98;;;;;;;33.32;60.96;99723.78;4278567;33;20108;-91
2023/08/17 13:56:08;;;;;;;0.65;0.65;;;;;;;33.37;60.96;99721.34;4278308;33;20323;-92
2023/08/17 13:58:33;;;;;;;0.47;0.47;;;;;;;33.42;60.96;99710.78;4278371;33;20469;-91
2023/08/17 14:00:59;;;;;;;0.32;0.32;;;;;;;33.54;60.96;99716.47;4266311;33;20144;-91
2023/08/17 14:03:25;;;;;;;1.02;0.70;;;;;;;33.60;60.97;99710.28;4278379;33;20115;-91
2023/08/17 14:05:50;;;;;;;0.90;0.65;;;;;;;33.71;60.97;99704.31;4278383;33;20097;-91
2023/08/17 14:08:15;;;;;;;0.47;0.47;;;;;;;33.62;60.97;99715.50;4266582;33;20450;-92
2023/08/17 14:10:41;;;;;;;0.65;0.57;;;;;;;33.57;60.97;99718.75;4278335;33;20112;-92
2023/08/17 14:13:07;;;;;;;0.50;0.50;;;;;;;33.40;60.95;99725.53;4278485;33;20119;-92
2023/08/17 14:15:32;;;;;;;0.85;0.70;;;;;;;33.54;60.96;99724.56;4278595;33;20215;-92
2023/08/17 14:17:58;;;;;;;0.45;0.40;;;;;;;33.42;60.97;99728.84;4277848;33;22381;-92
2023/08/17 14:20:23;;;;;;;5.47;1.45;;;;;;;33.51;60.97;99730.34;4278168;33;20112;-91
2023/08/17 14:22:48;;;;;;;0.90;0.70;;;;;;;33.58;60.97;99736.63;4277695;33;25917;-91
2023/08/17 14:25:15;;;;;;;1.00;0.82;;;;;;;33.68;60.98;99733.56;4266397;33;20105;-91
2023/08/17 14:27:41;;;;;;;0.37;0.37;;;;;;;33.82;60.98;99733.44;4278437;33;20558;-92
2023/08/17 14:30:07;;;;;;;0.43;0.43;;;;;;;33.92;60.99;99722.31;4266209;33;20420;-92
2023/08/17 14:32:32;;;;;;;0.47;0.45;;;;;;;33.80;60.99;99718.47;4278250;33;20089;-92
2023/08/17 14:34:58;;;;;;;0.25;0.17;;;;;;;33.74;60.98;99720.09;4278000;33;20132;-92
2023/08/17 14:37:23;;;;;;;0.47;0.47;;;;;;;33.80;60.99;99707.66;4278175;33;20124;-92
2023/08/17 14:39:48;;;;;;;1.37;0.62;;;;;;;34.06;60.99;99706.97;4278716;33;20117;-91
2023/08/17 14:42:14;;;;;;;0.20;0.20;;;;;;;34.05;61.00;99710.72;4279718;33;20388;-92
2023/08/17 14:44:39;;;;;;;0.57;0.52;;;;;;;34.04;60.98;99712.59;4268096;33;20136;-92
2023/08/17 14:47:05;;;;;;;0.60;0.60;;;;;;;33.94;60.98;99719.41;4279801;33;20213;-92
2023/08/17 14:49:30;;;;;;;0.75;0.75;;;;;;;33.76;60.98;99714.50;4279754;33;20169;-92
2023/08/17 14:51:56;;;;;;;0.32;0.32;;;;;;;33.67;60.98;99713.84;4279369;33;26787;-92
2023/08/17 14:54:21;;;;;;;0.32;0.32;;;;;;;33.46;60.96;99705.81;4279649;33;20156;-92
2023/08/17 14:56:46;;;;;;;0.62;0.62;;;;;;;33.43;60.96;99707.06;4267681;33;20246;-92
2023/08/17 14:59:12;;;;;;;0.50;0.50;;;;;;;33.47;60.96;99702.94;4279106;33;26279;-92
2023/08/17 15:01:37;;;;;;;0.20;0.20;;;;;;;33.30;60.95;99703.41;4279645;33;20157;-92
2023/08/17 15:04:03;;;;;;;0.47;0.47;;;;;;;33.26;60.95;99700.25;4279516;33;20159;-92
2023/08/17 15:06:28;;;;;;;2.10;0.70;;;;;;;33.24;60.95;99700.47;4279441;33;20129;-92
2023/08/17 15:08:54;;;;;;;0.82;0.82;;;;;;;33.31;60.95;99700.50;4279808;33;20135;-91
2023/08/17 15:11:19;;;;;;;0.10;0.10;;;;;;;33.22;60.95;99699.00;4279669;33;20144;-92
2023/08/17 15:13:45;;;;;;;0.47;0.47;;;;;;;33.07;60.94;99698.25;4279914;33;20133;-92
2023/08/17 15:16:10;;;;;;;0.37;0.37;;;;;;;32.72;60.93;99695.44;4279862;33;20136;-92
2023/08/17 15:18:36;;;;;;;0.90;0.90;;;;;;;32.73;60.92;99697.09;4280010;33;20121;-91
2023/08/17 15:21:01;;;;;;;12.88;1.20;;;;;;;32.88;60.93;99699.75;4267911;33;20120;-92
2023/08/17 15:23:27;;;;;;;0.65;0.65;;;;;;;32.78;60.93;99693.81;4291618;33;20113;-92